createdAt,value
2022-10-24T00:00:48.741Z,15.43
2022-10-24T00:01:48.707Z,15.46
2022-10-24T00:02:48.865Z,15.49
2022-10-24T00:03:48.757Z,15.41
2022-10-24T00:04:48.783Z,15.51
2022-10-24T00:05:48.821Z,15.50
2022-10-24T00:06:48.830Z,15.50
2022-10-24T00:07:48.864Z,15.46
2022-10-24T00:08:48.879Z,15.51
2022-10-24T00:09:48.903Z,15.50
2022-10-24T00:10:48.957Z,15.47
2022-10-24T00:11:48.955Z,15.49
2022-10-24T00:12:48.996Z,15.49
2022-10-24T00:13:49.002Z,15.50
2022-10-24T00:14:49.030Z,15.44
2022-10-24T00:15:49.052Z,15.39
2022-10-24T00:16:49.078Z,15.43
2022-10-24T00:17:49.114Z,15.47
2022-10-24T00:18:49.123Z,15.47
2022-10-24T00:19:49.155Z,15.50
2022-10-24T00:20:49.180Z,15.57
2022-10-24T00:21:49.200Z,15.57
2022-10-24T00:22:49.224Z,15.51
2022-10-24T00:23:49.247Z,15.43
2022-10-24T00:24:49.275Z,15.51
2022-10-24T00:25:49.298Z,15.51
2022-10-24T00:26:49.325Z,15.56
2022-10-24T00:27:49.350Z,15.51
2022-10-24T00:28:49.453Z,15.38
2022-10-24T00:29:49.400Z,15.39
2022-10-24T00:30:49.431Z,15.50
2022-10-24T00:31:49.449Z,15.49
2022-10-24T00:32:49.475Z,15.38
2022-10-24T00:33:49.494Z,15.46
2022-10-24T00:34:49.517Z,15.51
2022-10-24T00:35:49.548Z,15.43
2022-10-24T00:36:49.568Z,15.41
2022-10-24T00:37:49.593Z,15.50
2022-10-24T00:38:49.619Z,15.35
2022-10-24T00:39:49.646Z,15.50
2022-10-24T00:40:49.748Z,15.41
2022-10-24T00:41:49.695Z,15.54
2022-10-24T00:42:49.718Z,15.50
2022-10-24T00:43:49.740Z,15.38
2022-10-24T00:44:49.765Z,15.47
2022-10-24T00:45:49.792Z,15.46
2022-10-24T00:46:49.819Z,15.39
2022-10-24T00:47:49.843Z,15.50
2022-10-24T00:48:49.867Z,15.46
2022-10-24T00:49:49.893Z,15.50
2022-10-24T00:50:49.916Z,15.41
2022-10-24T00:51:49.942Z,15.41
2022-10-24T00:52:49.970Z,15.44
2022-10-24T00:53:50.065Z,15.43
2022-10-24T00:54:50.014Z,15.44
2022-10-24T00:55:50.047Z,15.41
2022-10-24T00:56:50.065Z,15.35
2022-10-24T00:57:50.111Z,15.38
2022-10-24T00:58:50.118Z,15.31
2022-10-24T00:59:50.135Z,15.34
2022-10-24T01:00:50.226Z,15.38
2022-10-24T01:01:50.233Z,15.35
2022-10-24T01:02:50.214Z,15.38
2022-10-24T01:03:50.237Z,15.47
2022-10-24T01:04:50.265Z,15.47
2022-10-24T01:05:50.300Z,15.43
2022-10-24T01:06:50.307Z,15.50
2022-10-24T01:07:50.337Z,15.50
2022-10-24T01:08:50.376Z,15.32
2022-10-24T01:09:50.383Z,15.43
2022-10-24T01:10:50.412Z,15.49
2022-10-24T01:11:50.458Z,15.41
2022-10-24T01:12:50.502Z,15.46
2022-10-24T01:13:50.484Z,15.41
2022-10-24T01:14:50.509Z,15.34
2022-10-24T01:15:50.549Z,15.43
2022-10-24T01:16:50.562Z,15.41
2022-10-24T01:17:50.589Z,15.34
2022-10-24T01:18:50.654Z,15.43
2022-10-24T01:19:50.628Z,15.43
2022-10-24T01:20:50.656Z,15.43
2022-10-24T01:21:50.682Z,15.43
2022-10-24T01:22:50.704Z,15.32
2022-10-24T01:23:50.731Z,15.35
2022-10-24T01:24:50.758Z,15.41
2022-10-24T01:25:50.777Z,15.43
2022-10-24T01:26:50.802Z,15.46
2022-10-24T01:27:50.828Z,15.27
2022-10-24T01:28:50.849Z,15.46
2022-10-24T01:29:50.873Z,15.41
2022-10-24T01:30:50.900Z,15.39
2022-10-24T01:31:50.926Z,15.35
2022-10-24T01:32:50.950Z,15.44
2022-10-24T01:33:50.975Z,15.44
2022-10-24T01:34:51.010Z,15.32
2022-10-24T01:35:51.021Z,15.32
2022-10-24T01:36:51.047Z,15.46
2022-10-24T01:37:51.075Z,15.32
2022-10-24T01:38:51.102Z,15.43
2022-10-24T01:39:51.126Z,15.38
2022-10-24T01:40:51.142Z,15.38
2022-10-24T01:41:51.188Z,15.38
2022-10-24T01:42:51.193Z,15.39
2022-10-24T01:43:51.217Z,15.34
2022-10-24T01:44:51.246Z,15.41
2022-10-24T01:45:51.277Z,15.35
2022-10-24T01:46:51.298Z,15.38
2022-10-24T01:47:51.322Z,15.41
2022-10-24T01:48:51.346Z,15.35
2022-10-24T01:49:51.368Z,15.43
2022-10-24T01:50:51.395Z,15.43
2022-10-24T01:51:51.420Z,15.36
2022-10-24T01:52:51.440Z,15.44
2022-10-24T01:53:51.464Z,15.38
2022-10-24T01:54:51.485Z,15.39
2022-10-24T01:55:51.512Z,15.38
2022-10-24T01:56:51.564Z,15.34
2022-10-24T01:57:51.562Z,15.35
2022-10-24T01:58:51.610Z,15.38
2022-10-24T01:59:51.614Z,15.39
2022-10-24T02:00:51.634Z,15.34
2022-10-24T02:01:51.683Z,15.38
2022-10-24T02:02:51.687Z,15.34
2022-10-24T02:03:51.710Z,15.32
2022-10-24T02:04:51.735Z,15.34
2022-10-24T02:05:51.756Z,15.36
2022-10-24T02:06:51.782Z,15.39
2022-10-24T02:07:51.808Z,15.41
2022-10-24T02:08:51.877Z,15.31
2022-10-24T02:09:51.857Z,15.36
2022-10-24T02:10:51.884Z,15.35
2022-10-24T02:11:51.904Z,15.32
2022-10-24T02:12:51.933Z,15.28
2022-10-24T02:13:51.955Z,15.17
2022-10-24T02:14:51.975Z,15.32
2022-10-24T02:15:52.016Z,15.23
2022-10-24T02:16:52.032Z,15.28
2022-10-24T02:17:52.062Z,15.31
2022-10-24T02:18:52.076Z,15.28
2022-10-24T02:19:52.101Z,15.34
2022-10-24T02:20:52.127Z,15.31
2022-10-24T02:21:52.153Z,15.29
2022-10-24T02:22:52.176Z,15.38
2022-10-24T02:23:52.196Z,15.44
2022-10-24T02:24:52.227Z,15.36
2022-10-24T02:25:52.251Z,15.36
2022-10-24T02:26:52.278Z,15.35
2022-10-24T02:27:52.304Z,15.39
2022-10-24T02:28:52.320Z,15.44
2022-10-24T02:29:52.345Z,15.39
2022-10-24T02:30:52.366Z,15.35
2022-10-24T02:31:52.403Z,15.36
2022-10-24T02:32:52.414Z,15.32
2022-10-24T02:33:52.446Z,15.41
2022-10-24T02:34:52.467Z,15.39
2022-10-24T02:35:52.491Z,15.39
2022-10-24T02:36:52.522Z,15.31
2022-10-24T02:37:52.539Z,15.47
2022-10-24T02:38:52.566Z,15.39
2022-10-24T02:39:52.591Z,15.43
2022-10-24T02:40:52.618Z,15.46
2022-10-24T02:41:52.647Z,15.31
2022-10-24T02:42:52.665Z,15.38
2022-10-24T02:43:52.686Z,15.38
2022-10-24T02:44:52.718Z,15.36
2022-10-24T02:45:52.740Z,15.35
2022-10-24T02:46:52.759Z,15.41
2022-10-24T02:47:52.786Z,15.36
2022-10-24T02:48:52.812Z,15.31
2022-10-24T02:49:52.834Z,15.27
2022-10-24T02:50:52.856Z,15.21
2022-10-24T02:51:52.884Z,15.31
2022-10-24T02:52:52.907Z,15.23
2022-10-24T02:53:52.934Z,15.25
2022-10-24T02:54:52.955Z,15.25
2022-10-24T02:55:52.978Z,15.21
2022-10-24T02:57:00.179Z,15.25
2022-10-24T02:58:57.533Z,15.20
2022-10-24T02:59:57.054Z,15.16
2022-10-24T03:02:01.061Z,15.17
2022-10-24T03:03:01.073Z,15.20
2022-10-24T03:04:54.552Z,15.21
2022-10-24T03:05:54.235Z,15.13
2022-10-24T03:07:58.252Z,15.09
2022-10-24T03:08:58.268Z,15.09
2022-10-24T03:11:02.759Z,14.98
2022-10-24T03:12:02.291Z,14.98
2022-10-24T03:14:06.322Z,14.98
2022-10-24T03:15:06.327Z,14.98
2022-10-24T03:17:10.818Z,14.99
2022-10-24T03:18:10.378Z,14.86
2022-10-24T03:20:14.377Z,14.89
2022-10-24T03:21:14.401Z,14.88
2022-10-24T03:23:07.877Z,15.01
2022-10-24T03:26:00.679Z,14.91
2022-10-24T03:27:00.536Z,14.95
2022-10-24T03:29:05.036Z,14.99
2022-10-24T03:30:04.562Z,14.95
2022-10-24T03:32:08.572Z,15.09
2022-10-24T03:33:08.591Z,15.09
2022-10-24T03:35:14.226Z,15.17
2022-10-24T03:36:12.634Z,15.16
2022-10-24T03:38:16.633Z,15.27
2022-10-24T03:39:16.645Z,15.20
2022-10-24T03:41:21.160Z,15.32
2022-10-24T03:42:20.718Z,15.31
2022-10-24T03:44:24.699Z,15.43
2022-10-24T03:45:24.716Z,15.47
2022-10-24T03:47:29.711Z,15.43
2022-10-24T03:48:28.810Z,15.43
2022-10-24T03:50:32.780Z,15.39
2022-10-24T03:51:32.796Z,15.36
2022-10-24T03:53:26.271Z,15.50
2022-10-24T03:54:25.761Z,15.50
2022-10-24T03:56:29.782Z,15.47
2022-10-24T03:57:29.863Z,15.43
2022-10-24T03:59:34.297Z,15.46
2022-10-24T04:00:33.827Z,15.47
2022-10-24T04:02:26.773Z,15.46
2022-10-24T04:03:26.783Z,15.41
2022-10-24T04:05:31.336Z,15.50
2022-10-24T04:06:33.988Z,15.50
2022-10-24T04:08:34.831Z,15.39
2022-10-24T04:09:34.847Z,15.50
2022-10-24T04:11:39.338Z,15.36
2022-10-24T04:12:38.881Z,15.49
2022-10-24T04:14:42.890Z,15.51
2022-10-24T04:15:42.911Z,15.49
2022-10-24T04:17:47.639Z,15.41
2022-10-24T04:18:46.946Z,15.39
2022-10-24T04:20:50.948Z,15.44
2022-10-24T04:21:50.963Z,15.46
2022-10-24T04:23:55.455Z,15.38
2022-10-24T04:24:54.998Z,15.46
2022-10-24T04:26:59.597Z,15.35
2022-10-24T04:27:59.222Z,15.43
2022-10-24T04:30:03.713Z,15.41
2022-10-24T04:31:03.267Z,15.36
2022-10-24T04:32:56.202Z,15.34
2022-10-24T04:33:56.215Z,15.31
2022-10-24T04:36:00.714Z,15.25
2022-10-24T04:37:00.242Z,15.31
2022-10-24T04:39:04.268Z,15.16
2022-10-24T04:40:04.281Z,15.19
2022-10-24T04:41:57.770Z,15.19
2022-10-24T04:42:57.425Z,15.03
2022-10-24T04:45:01.447Z,15.09
2022-10-24T04:46:01.455Z,15.03
2022-10-24T04:48:05.954Z,14.95
2022-10-24T04:49:05.490Z,14.88
2022-10-24T04:51:09.511Z,14.92
2022-10-24T04:52:09.546Z,14.98
2022-10-24T04:54:14.021Z,14.95
2022-10-24T04:55:13.583Z,14.94
2022-10-24T04:57:17.577Z,14.98
2022-10-24T04:58:17.590Z,14.95
2022-10-24T05:00:22.092Z,14.95
2022-10-24T05:01:21.651Z,14.96
2022-10-24T05:03:14.565Z,14.83
2022-10-24T05:04:14.579Z,14.88
2022-10-24T05:06:19.085Z,14.83
2022-10-24T05:07:18.625Z,14.86
2022-10-24T05:09:22.635Z,14.88
2022-10-24T05:10:22.657Z,14.84
2022-10-24T05:12:27.165Z,14.81
2022-10-24T05:13:26.690Z,14.77
2022-10-24T05:15:30.703Z,14.81
2022-10-24T05:16:30.716Z,14.80
2022-10-24T05:18:35.205Z,14.84
2022-10-24T05:19:34.749Z,14.78
2022-10-24T05:21:38.767Z,14.96
2022-10-24T05:22:38.781Z,14.98
2022-10-24T05:24:43.278Z,14.94
2022-10-24T05:25:42.806Z,14.98
2022-10-24T05:27:46.832Z,15.09
2022-10-24T05:28:51.585Z,15.03
2022-10-24T05:30:51.344Z,15.07
2022-10-24T05:31:50.872Z,15.09
2022-10-24T05:33:54.895Z,15.03
2022-10-24T05:34:54.911Z,15.09
2022-10-24T05:36:59.404Z,15.11
2022-10-24T05:37:58.935Z,15.14
2022-10-24T05:40:02.951Z,15.21
2022-10-24T05:41:02.970Z,15.13
2022-10-24T05:42:56.446Z,15.20
2022-10-24T05:43:55.923Z,15.16
2022-10-24T05:45:59.934Z,15.20
2022-10-24T05:46:59.945Z,15.11
2022-10-24T05:49:04.446Z,15.21
2022-10-24T05:50:03.980Z,15.20
2022-10-24T05:52:07.989Z,15.13
2022-10-24T05:53:07.999Z,15.23
2022-10-24T05:55:14.502Z,15.06
2022-10-24T05:56:12.049Z,15.21
2022-10-24T05:58:16.049Z,15.25
2022-10-24T05:59:16.069Z,15.17
2022-10-24T06:01:09.622Z,15.16
2022-10-24T06:02:09.284Z,15.16
2022-10-24T06:04:13.971Z,15.25
2022-10-24T06:05:13.254Z,15.14
2022-10-24T06:07:17.746Z,15.17
2022-10-24T06:08:17.278Z,15.10
2022-10-24T06:10:21.291Z,15.10
2022-10-24T06:13:15.791Z,15.03
2022-10-24T06:14:14.261Z,14.99
2022-10-24T06:16:18.279Z,15.09
2022-10-24T06:17:18.287Z,15.07
2022-10-24T06:19:22.783Z,15.11
2022-10-24T06:20:22.326Z,15.10
2022-10-24T06:22:26.333Z,15.14
2022-10-24T06:23:26.350Z,15.21
2022-10-24T06:25:30.848Z,15.10
2022-10-24T06:26:30.390Z,15.19
2022-10-24T06:28:34.400Z,15.21
2022-10-24T06:29:34.415Z,15.20
2022-10-24T06:31:38.919Z,15.27
2022-10-24T06:32:39.652Z,15.29
2022-10-24T06:34:42.458Z,15.31
2022-10-24T06:35:42.480Z,15.34
2022-10-24T06:37:48.226Z,15.39
2022-10-24T06:38:46.506Z,15.39
2022-10-24T06:40:50.511Z,15.57
2022-10-24T06:41:50.529Z,15.57
2022-10-24T06:43:55.020Z,15.69
2022-10-24T06:44:54.605Z,15.72
2022-10-24T06:46:58.578Z,15.78
2022-10-24T06:47:58.586Z,15.92
2022-10-24T06:50:03.079Z,15.76
2022-10-24T06:51:02.612Z,15.78
2022-10-24T06:52:55.553Z,15.92
2022-10-24T06:53:55.569Z,15.89
2022-10-24T06:56:00.062Z,16.02
2022-10-24T06:56:59.597Z,15.84
2022-10-24T06:59:03.634Z,15.94
2022-10-24T07:00:03.634Z,16.02
2022-10-24T07:02:08.271Z,15.96
2022-10-24T07:03:07.672Z,16.04
2022-10-24T07:05:11.691Z,16.02
2022-10-24T07:06:11.735Z,16.01
2022-10-24T07:08:16.192Z,16.09
2022-10-24T07:09:15.935Z,16.11
2022-10-24T07:11:19.740Z,16.15
2022-10-24T07:14:24.255Z,16.24
2022-10-24T07:15:23.795Z,16.35
2022-10-24T07:17:27.808Z,16.39
2022-10-24T07:18:27.827Z,16.42
2022-10-24T07:20:32.365Z,16.45
2022-10-24T07:21:31.863Z,16.42
2022-10-24T07:23:24.802Z,16.50
2022-10-24T07:24:24.822Z,16.48
2022-10-24T07:26:29.310Z,16.48
2022-10-24T07:27:28.846Z,16.52
2022-10-24T07:29:32.866Z,16.70
2022-10-24T07:30:32.883Z,16.71
2022-10-24T07:31:32.921Z,16.58
2022-10-24T07:32:32.938Z,16.75
2022-10-24T07:33:32.954Z,16.79
2022-10-24T07:34:32.985Z,16.82
2022-10-24T07:35:33.010Z,16.88
2022-10-24T07:36:33.034Z,16.97
2022-10-24T07:37:33.057Z,16.96
2022-10-24T07:38:33.083Z,17.06
2022-10-24T07:39:33.111Z,17.03
2022-10-24T07:40:33.139Z,17.03
2022-10-24T07:41:33.163Z,16.96
2022-10-24T07:42:33.189Z,17.01
2022-10-24T07:43:33.212Z,17.07
2022-10-24T07:44:33.238Z,17.16
2022-10-24T07:45:33.264Z,17.19
2022-10-24T07:46:33.292Z,17.21
2022-10-24T07:47:33.316Z,17.25
2022-10-24T07:48:33.343Z,17.23
2022-10-24T07:49:33.784Z,17.30
2022-10-24T07:50:33.396Z,17.23
2022-10-24T07:51:33.419Z,17.30
2022-10-24T07:52:33.447Z,17.46
2022-10-24T07:53:33.471Z,17.51
2022-10-24T07:54:36.405Z,17.49
2022-10-24T07:55:33.522Z,17.44
2022-10-24T07:56:33.549Z,17.48
2022-10-24T07:57:33.575Z,17.43
2022-10-24T07:58:33.599Z,17.49
2022-10-24T07:59:42.486Z,17.41
2022-10-24T08:00:33.657Z,17.54
2022-10-24T08:01:33.715Z,17.52
2022-10-24T08:02:33.738Z,17.56
2022-10-24T08:03:33.727Z,17.44
2022-10-24T08:04:33.754Z,17.55
2022-10-24T08:05:33.777Z,17.56
2022-10-24T08:06:33.806Z,17.58
2022-10-24T08:07:33.836Z,17.64
2022-10-24T08:08:37.927Z,17.64
2022-10-24T08:09:33.884Z,17.74
2022-10-24T08:10:33.919Z,17.70
2022-10-24T08:11:33.935Z,17.79
2022-10-24T08:12:33.965Z,17.77
2022-10-24T08:13:33.987Z,17.77
2022-10-24T08:14:34.016Z,17.82
2022-10-24T08:15:34.041Z,17.89
2022-10-24T08:16:34.067Z,17.97
2022-10-24T08:17:34.095Z,17.92
2022-10-24T08:18:38.693Z,18.00
2022-10-24T08:19:34.145Z,18.10
2022-10-24T08:20:34.171Z,18.05
2022-10-24T08:21:34.196Z,18.14
2022-10-24T08:22:34.224Z,18.12
2022-10-24T08:23:34.250Z,18.15
2022-10-24T08:24:34.278Z,18.23
2022-10-24T08:25:34.300Z,18.30
2022-10-24T08:26:34.330Z,18.23
2022-10-24T08:27:34.372Z,18.23
2022-10-24T08:28:34.381Z,18.18
2022-10-24T08:29:34.405Z,18.23
2022-10-24T08:30:34.433Z,18.26
2022-10-24T08:31:34.460Z,18.15
2022-10-24T08:32:34.489Z,18.12
2022-10-24T08:33:34.512Z,18.15
2022-10-24T08:34:34.539Z,18.18
2022-10-24T08:35:34.565Z,18.14
2022-10-24T08:36:34.594Z,18.15
2022-10-24T08:37:34.680Z,18.15
2022-10-24T08:38:34.646Z,18.15
2022-10-24T08:39:34.670Z,18.15
2022-10-24T08:40:34.701Z,18.23
2022-10-24T08:41:34.720Z,18.21
2022-10-24T08:42:34.748Z,18.14
2022-10-24T08:43:34.778Z,18.26
2022-10-24T08:44:34.804Z,18.15
2022-10-24T08:45:34.830Z,18.18
2022-10-24T08:46:34.868Z,18.25
2022-10-24T08:48:34.909Z,18.23
2022-10-24T08:49:34.931Z,18.29
2022-10-24T08:50:34.957Z,18.42
2022-10-24T08:51:34.985Z,18.48
2022-10-24T08:52:35.013Z,18.48
2022-10-24T08:58:33.954Z,18.88
2022-10-24T09:00:37.976Z,19.08
2022-10-24T09:01:38.102Z,19.18
2022-10-24T09:03:57.937Z,19.26
2022-10-24T09:04:42.027Z,19.29
2022-10-24T09:06:46.062Z,19.31
2022-10-24T09:07:46.539Z,19.40
2022-10-24T09:09:50.576Z,19.40
2022-10-24T09:10:50.123Z,19.43
2022-10-24T09:12:43.060Z,19.44
2022-10-24T09:13:43.073Z,19.46
2022-10-24T09:15:47.584Z,19.37
2022-10-24T09:16:47.138Z,19.33
2022-10-24T09:18:51.671Z,19.29
2022-10-24T09:19:51.673Z,19.31
2022-10-24T09:20:51.862Z,19.28
2022-10-24T09:21:51.718Z,19.28
2022-10-24T09:22:51.756Z,19.29
2022-10-24T09:23:51.778Z,19.26
2022-10-24T09:24:51.799Z,19.26
2022-10-24T09:25:51.828Z,19.22
2022-10-24T09:26:51.856Z,19.26
2022-10-24T09:27:51.884Z,19.19
2022-10-24T09:28:51.913Z,19.16
2022-10-24T09:29:51.936Z,19.19
2022-10-24T09:30:51.972Z,19.21
2022-10-24T09:31:51.991Z,19.08
2022-10-24T09:32:52.024Z,19.21
2022-10-24T09:33:52.045Z,19.16
2022-10-24T09:34:52.072Z,19.23
2022-10-24T09:35:52.101Z,19.21
2022-10-24T09:36:52.127Z,19.21
2022-10-24T09:37:52.499Z,19.16
2022-10-24T09:38:52.186Z,19.14
2022-10-24T09:39:52.210Z,19.19
2022-10-24T09:40:52.238Z,19.10
2022-10-24T09:41:52.262Z,19.06
2022-10-24T09:42:52.295Z,19.10
2022-10-24T09:43:52.321Z,19.11
2022-10-24T09:44:52.345Z,19.08
2022-10-24T09:45:52.374Z,19.14
2022-10-24T09:46:52.401Z,18.95
2022-10-24T09:47:52.430Z,19.04
2022-10-24T09:48:52.453Z,18.98
2022-10-24T09:49:52.481Z,18.95
2022-10-24T09:50:52.506Z,18.98
2022-10-24T09:51:52.536Z,19.00
2022-10-24T09:52:52.575Z,18.99
2022-10-24T09:53:52.590Z,19.11
2022-10-24T09:54:52.618Z,19.07
2022-10-24T09:55:52.645Z,19.23
2022-10-24T09:56:54.580Z,19.26
2022-10-24T09:57:52.701Z,19.26
2022-10-24T09:58:52.730Z,19.32
2022-10-24T09:59:52.753Z,19.37
2022-10-24T10:00:52.785Z,19.43
2022-10-24T10:01:52.945Z,19.47
2022-10-24T10:02:52.836Z,19.58
2022-10-24T10:03:52.868Z,19.59
2022-10-24T10:04:52.891Z,19.74
2022-10-24T10:05:52.918Z,19.71
2022-10-24T10:06:52.987Z,19.69
2022-10-24T10:07:52.978Z,19.73
2022-10-24T10:08:53.002Z,19.78
2022-10-24T10:09:56.454Z,19.77
2022-10-24T10:10:53.058Z,19.74
2022-10-24T10:12:02.042Z,19.74
2022-10-24T10:12:53.110Z,19.74
2022-10-24T10:13:53.140Z,19.84
2022-10-24T10:14:53.167Z,19.88
2022-10-24T10:15:53.194Z,19.81
2022-10-24T10:16:53.253Z,19.68
2022-10-24T10:17:53.267Z,19.73
2022-10-24T10:18:53.278Z,19.74
2022-10-24T10:19:53.308Z,19.69
2022-10-24T10:20:53.336Z,19.56
2022-10-24T10:21:53.378Z,19.61
2022-10-24T10:22:53.388Z,19.54
2022-10-24T10:23:53.416Z,19.48
2022-10-24T10:24:53.444Z,19.50
2022-10-24T10:25:53.473Z,19.46
2022-10-24T10:26:53.502Z,19.41
2022-10-24T10:27:53.527Z,19.40
2022-10-24T10:28:53.554Z,19.41
2022-10-24T10:29:53.582Z,19.41
2022-10-24T10:30:53.609Z,19.50
2022-10-24T10:31:53.639Z,19.55
2022-10-24T10:32:53.666Z,19.54
2022-10-24T10:33:53.696Z,19.63
2022-10-24T10:34:53.724Z,19.69
2022-10-24T10:35:53.749Z,19.69
2022-10-24T10:36:53.775Z,19.66
2022-10-24T10:37:53.805Z,19.74
2022-10-24T10:38:53.832Z,19.76
2022-10-24T10:39:53.860Z,19.71
2022-10-24T10:40:53.887Z,19.80
2022-10-24T10:41:53.921Z,19.86
2022-10-24T10:42:53.952Z,19.83
2022-10-24T10:43:53.973Z,19.98
2022-10-24T10:44:54.001Z,19.87
2022-10-24T10:45:54.029Z,19.86
2022-10-24T10:46:54.059Z,19.94
2022-10-24T10:47:54.085Z,19.95
2022-10-24T10:48:54.113Z,19.96
2022-10-24T10:49:54.136Z,19.99
2022-10-24T10:50:54.170Z,19.95
2022-10-24T10:51:54.197Z,19.94
2022-10-24T10:52:54.223Z,19.83
2022-10-24T10:53:54.254Z,19.83
2022-10-24T10:54:54.283Z,19.74
2022-10-24T10:55:54.309Z,19.69
2022-10-24T10:56:54.337Z,19.61
2022-10-24T10:57:54.366Z,19.50
2022-10-24T10:58:54.402Z,19.43
2022-10-24T10:59:54.422Z,19.33
2022-10-24T11:00:54.453Z,19.25
2022-10-24T11:01:54.559Z,19.26
2022-10-24T11:02:54.849Z,19.22
2022-10-24T11:03:54.534Z,19.18
2022-10-24T11:04:54.560Z,19.21
2022-10-24T11:05:54.595Z,19.08
2022-10-24T11:06:54.679Z,19.08
2022-10-24T11:07:54.643Z,19.14
2022-10-24T11:08:54.671Z,19.14
2022-10-24T11:09:54.713Z,19.21
2022-10-24T11:10:54.730Z,19.26
2022-10-24T11:11:54.755Z,19.23
2022-10-24T11:12:54.782Z,19.28
2022-10-24T11:13:54.818Z,19.28
2022-10-24T11:14:54.843Z,19.33
2022-10-24T11:15:54.865Z,19.28
2022-10-24T11:16:54.898Z,19.28
2022-10-24T11:17:54.919Z,19.33
2022-10-24T11:18:54.959Z,19.28
2022-10-24T11:19:54.976Z,19.22
2022-10-24T11:20:55.001Z,19.23
2022-10-24T11:21:55.038Z,19.29
2022-10-24T11:22:55.058Z,19.31
2022-10-24T11:23:55.083Z,19.26
2022-10-24T11:24:55.109Z,19.28
2022-10-24T11:25:55.139Z,19.28
2022-10-24T11:26:55.170Z,19.37
2022-10-24T11:27:55.197Z,19.44
2022-10-24T11:28:55.221Z,19.36
2022-10-24T11:29:55.250Z,19.50
2022-10-24T11:30:55.282Z,19.50
2022-10-24T11:31:55.375Z,19.50
2022-10-24T11:32:55.339Z,19.48
2022-10-24T11:33:55.359Z,19.56
2022-10-24T11:34:55.391Z,19.54
2022-10-24T11:35:55.413Z,19.58
2022-10-24T11:36:56.063Z,19.58
2022-10-24T11:37:55.468Z,19.65
2022-10-24T11:38:55.498Z,19.73
2022-10-24T11:39:55.526Z,19.71
2022-10-24T11:40:58.649Z,19.71
2022-10-24T11:41:55.591Z,19.74
2022-10-24T11:42:55.608Z,19.78
2022-10-24T11:43:55.637Z,19.83
2022-10-24T11:44:55.660Z,19.78
2022-10-24T11:45:55.694Z,19.76
2022-10-24T11:46:55.731Z,19.80
2022-10-24T11:47:55.750Z,19.88
2022-10-24T11:48:55.772Z,19.99
2022-10-24T11:49:55.800Z,19.96
2022-10-24T11:50:55.831Z,19.95
2022-10-24T11:51:55.862Z,19.98
2022-10-24T11:52:55.883Z,20.05
2022-10-24T11:53:55.911Z,20.08
2022-10-24T11:54:55.942Z,20.05
2022-10-24T11:55:56.002Z,19.99
2022-10-24T11:56:56.000Z,19.99
2022-10-24T11:57:56.028Z,20.02
2022-10-24T11:58:56.053Z,20.08
2022-10-24T11:59:56.087Z,20.02
2022-10-24T12:00:56.109Z,19.98
2022-10-24T12:01:56.139Z,19.96
2022-10-24T12:02:56.263Z,20.05
2022-10-24T12:03:56.198Z,19.98
2022-10-24T12:04:56.219Z,20.03
2022-10-24T12:05:56.253Z,20.05
2022-10-24T12:06:56.279Z,20.13
2022-10-24T12:07:56.307Z,20.10
2022-10-24T12:08:56.336Z,20.14
2022-10-24T12:09:56.365Z,20.02
2022-10-24T12:10:56.392Z,20.21
2022-10-24T12:11:56.418Z,20.14
2022-10-24T12:12:56.881Z,20.23
2022-10-24T12:13:56.531Z,20.13
2022-10-24T12:14:56.501Z,20.24
2022-10-24T12:15:56.533Z,20.13
2022-10-24T12:16:56.558Z,20.16
2022-10-24T12:17:56.587Z,20.14
2022-10-24T12:18:56.618Z,20.16
2022-10-24T12:19:56.644Z,20.13
2022-10-24T12:20:56.691Z,20.28
2022-10-24T12:21:56.700Z,20.17
2022-10-24T12:22:56.729Z,20.24
2022-10-24T12:23:56.762Z,20.28
2022-10-24T12:24:56.784Z,20.35
2022-10-24T12:25:56.816Z,20.47
2022-10-24T12:26:56.849Z,20.43
2022-10-24T12:27:56.871Z,20.39
2022-10-24T12:28:56.901Z,20.51
2022-10-24T12:29:56.932Z,20.51
2022-10-24T12:30:56.956Z,20.52
2022-10-24T12:31:56.982Z,20.57
2022-10-24T12:32:57.014Z,20.73
2022-10-24T12:33:57.045Z,20.80
2022-10-24T12:35:12.179Z,20.74
2022-10-24T12:35:57.107Z,20.70
2022-10-24T12:36:57.128Z,20.76
2022-10-24T12:37:57.157Z,20.72
2022-10-24T12:38:57.186Z,20.76
2022-10-24T12:39:58.496Z,20.57
2022-10-24T12:40:57.243Z,20.69
2022-10-24T12:41:57.268Z,20.59
2022-10-24T12:42:57.301Z,20.59
2022-10-24T12:43:57.326Z,20.52
2022-10-24T12:44:57.358Z,20.52
2022-10-24T12:45:57.381Z,20.47
2022-10-24T12:46:57.409Z,20.47
2022-10-24T12:47:57.511Z,20.51
2022-10-24T12:48:57.468Z,20.48
2022-10-24T12:49:57.504Z,20.42
2022-10-24T12:50:57.541Z,20.43
2022-10-24T12:51:57.554Z,20.48
2022-10-24T12:52:57.584Z,20.47
2022-10-24T12:53:57.614Z,20.42
2022-10-24T12:54:57.650Z,20.41
2022-10-24T12:55:57.668Z,20.39
2022-10-24T12:56:57.697Z,20.28
2022-10-24T12:57:57.728Z,20.31
2022-10-24T12:58:57.753Z,20.21
2022-10-24T12:59:57.783Z,20.14
2022-10-24T13:00:57.819Z,20.16
2022-10-24T13:02:03.401Z,20.06
2022-10-24T13:02:57.867Z,20.03
2022-10-24T13:03:57.898Z,19.94
2022-10-24T13:04:57.927Z,19.95
2022-10-24T13:05:57.950Z,19.81
2022-10-24T13:06:57.985Z,19.77
2022-10-24T13:07:58.010Z,19.69
2022-10-24T13:08:58.035Z,19.76
2022-10-24T13:09:58.066Z,19.69
2022-10-24T13:10:58.095Z,19.71
2022-10-24T13:11:58.122Z,19.83
2022-10-24T13:12:58.309Z,19.84
2022-10-24T13:13:58.178Z,19.88
2022-10-24T13:14:58.211Z,19.94
2022-10-24T13:15:58.233Z,19.96
2022-10-24T13:16:58.258Z,19.92
2022-10-24T13:17:58.289Z,19.87
2022-10-24T13:18:58.318Z,19.94
2022-10-24T13:19:58.350Z,19.95
2022-10-24T13:20:58.373Z,19.91
2022-10-24T13:21:58.403Z,19.86
2022-10-24T13:22:58.430Z,19.92
2022-10-24T13:23:58.458Z,19.91
2022-10-24T13:24:58.489Z,19.95
2022-10-24T13:25:58.516Z,20.01
2022-10-24T13:26:58.539Z,19.96
2022-10-24T13:27:58.572Z,19.96
2022-10-24T13:28:58.601Z,20.03
2022-10-24T13:29:58.628Z,20.08
2022-10-24T13:30:58.661Z,20.01
2022-10-24T13:31:58.681Z,20.01
2022-10-24T13:32:58.709Z,19.96
2022-10-24T13:33:58.736Z,19.86
2022-10-24T13:34:58.764Z,19.87
2022-10-24T13:35:58.791Z,19.78
2022-10-24T13:36:58.821Z,19.73
2022-10-24T13:38:01.266Z,19.87
2022-10-24T13:38:58.904Z,19.73
2022-10-24T13:39:58.906Z,19.71
2022-10-24T13:40:58.932Z,19.71
2022-10-24T13:41:58.960Z,19.71
2022-10-24T13:42:58.991Z,19.59
2022-10-24T13:43:59.016Z,19.61
2022-10-24T13:44:59.042Z,19.47
2022-10-24T13:45:59.069Z,19.44
2022-10-24T13:46:59.094Z,19.44
2022-10-24T13:47:59.128Z,19.44
2022-10-24T13:48:59.152Z,19.43
2022-10-24T13:49:59.183Z,19.43
2022-10-24T13:50:59.204Z,19.33
2022-10-24T13:51:59.237Z,19.33
2022-10-24T13:52:59.261Z,19.36
2022-10-24T13:53:59.291Z,19.31
2022-10-24T13:54:59.411Z,19.23
2022-10-24T13:55:59.341Z,19.23
2022-10-24T13:57:01.998Z,19.07
2022-10-24T13:57:59.399Z,19.08
2022-10-24T13:58:59.429Z,19.08
2022-10-24T13:59:59.456Z,19.04
2022-10-24T14:00:59.566Z,18.92
2022-10-24T14:01:59.506Z,18.99
2022-10-24T14:02:59.674Z,18.98
2022-10-24T14:03:59.564Z,19.07
2022-10-24T14:04:59.586Z,18.99
2022-10-24T14:05:59.636Z,18.95
2022-10-24T14:06:59.647Z,18.92
2022-10-24T14:07:59.672Z,18.92
2022-10-24T14:09:06.865Z,18.90
2022-10-24T14:09:59.737Z,18.81
2022-10-24T14:10:59.758Z,18.78
2022-10-24T14:11:59.782Z,18.72
2022-10-24T14:12:59.808Z,18.78
2022-10-24T14:14:03.907Z,18.72
2022-10-24T14:14:59.862Z,18.63
2022-10-24T14:15:59.888Z,18.62
2022-10-24T14:16:59.912Z,18.57
2022-10-24T14:17:59.940Z,18.66
2022-10-24T14:18:59.972Z,18.62
2022-10-24T14:19:59.994Z,18.52
2022-10-24T14:21:00.022Z,18.52
2022-10-24T14:22:00.047Z,18.51
2022-10-24T14:23:00.085Z,18.51
2022-10-24T14:24:00.108Z,18.60
2022-10-24T14:25:00.129Z,18.57
2022-10-24T14:26:00.161Z,18.58
2022-10-24T14:27:00.184Z,18.50
2022-10-24T14:28:00.209Z,18.58
2022-10-24T14:29:00.398Z,18.65
2022-10-24T14:30:00.263Z,18.65
2022-10-24T14:31:00.292Z,18.69
2022-10-24T14:32:00.327Z,18.73
2022-10-24T14:33:00.339Z,18.82
2022-10-24T14:34:00.369Z,18.87
2022-10-24T14:36:00.424Z,18.82
2022-10-24T14:37:00.459Z,18.91
2022-10-24T14:38:00.477Z,18.84
2022-10-24T14:39:00.511Z,18.90
2022-10-24T14:40:00.532Z,18.81
2022-10-24T14:41:08.960Z,18.84
2022-10-24T14:42:00.588Z,18.85
2022-10-24T14:43:00.616Z,18.85
2022-10-24T14:44:00.648Z,18.84